Time;durP1;ratioP1;P1;durP2;ratioP2;P2;SDS_P1;SDS_P2;PMS_P1;PMS_P2;Temp;Humidity;BMP_temperature;BMP_pressure;BME280_temperature;BME280_humidity;BME280_pressure;Samples;Min_cycle;Max_cycle;Signal;HPM_P1;HPM_P2
2024/01/15 00:01:09;;;;;;;30.20;15.60;;;;;;;-2.73;83.87;98117.23;79444;1301;3015530;-65
2024/01/15 00:03:36;;;;;;;21.60;10.50;;;;;;;-2.81;84.82;98128.59;79360;1301;3011653;-64
2024/01/15 00:06:04;;;;;;;34.40;14.10;;;;;;;-2.79;84.49;98134.36;78188;1302;3028388;-65
2024/01/15 00:08:32;;;;;;;29.80;15.20;;;;;;;-2.97;85.57;98137.94;79258;1298;3012869;-65
2024/01/15 00:10:58;;;;;;;21.00;11.40;;;;;;;-2.76;85.80;98137.02;79162;1298;3011688;-65
2024/01/15 00:13:26;;;;;;;30.90;16.10;;;;;;;-2.00;84.47;98138.05;78099;1298;3052003;-64
2024/01/15 00:15:53;;;;;;;28.80;14.30;;;;;;;-1.79;83.48;98142.17;79431;1298;3012753;-67
2024/01/15 00:18:19;;;;;;;31.10;16.70;;;;;;;-1.75;82.22;98140.86;80834;1301;3011636;-65
2024/01/15 00:20:47;;;;;;;26.50;13.80;;;;;;;-1.96;82.30;98142.57;78249;1301;3028126;-69
2024/01/15 00:23:14;;;;;;;36.60;12.20;;;;;;;-2.19;83.16;98151.49;79495;1301;3013149;-65
2024/01/15 00:25:41;;;;;;;33.60;15.50;;;;;;;-2.31;82.74;98146.86;79615;1298;3011950;-65
2024/01/15 00:28:08;;;;;;;33.60;15.10;;;;;;;-2.44;83.65;98149.29;78140;1302;3026363;-64
2024/01/15 00:30:35;;;;;;;27.20;14.40;;;;;;;-2.70;84.34;98148.99;79250;1301;3013165;-66
2024/01/15 00:33:02;;;;;;;33.10;17.80;;;;;;;-2.71;84.98;98139.63;79350;1302;3011734;-67
2024/01/15 00:35:30;;;;;;;25.30;11.70;;;;;;;-2.75;85.36;98137.66;78122;1301;3028554;-66
2024/01/15 00:37:56;;;;;;;27.40;14.50;;;;;;;-2.07;84.54;98142.20;79495;1301;3013509;-67
2024/01/15 00:40:22;;;;;;;29.10;14.80;;;;;;;-1.65;82.36;98145.21;79381;1299;3011721;-67
2024/01/15 00:42:50;;;;;;;29.90;14.80;;;;;;;-1.79;81.85;98151.14;78151;1301;3026260;-67
2024/01/15 00:45:17;;;;;;;33.10;16.10;;;;;;;-1.81;81.29;98151.36;79350;1301;3013417;-68
2024/01/15 00:47:44;;;;;;;27.10;13.30;;;;;;;-2.12;81.63;98160.90;79379;1301;3011669;-67
2024/01/15 00:50:11;;;;;;;35.40;15.90;;;;;;;-2.29;82.07;98165.86;78108;1301;3026999;-70
2024/01/15 00:52:38;;;;;;;25.20;14.50;;;;;;;-2.69;83.38;98163.89;79365;1301;3013143;-66
2024/01/15 00:55:05;;;;;;;33.80;16.60;;;;;;;-2.69;83.26;98167.84;79329;1301;3011763;-67
2024/01/15 00:57:33;;;;;;;29.20;14.90;;;;;;;-2.86;83.54;98172.58;78183;1301;3028553;-66
2024/01/15 01:00:00;;;;;;;23.30;13.00;;;;;;;-2.96;83.70;98169.09;79380;1297;3012944;-64
2024/01/15 01:02:27;;;;;;;33.60;14.70;;;;;;;-3.16;84.00;98172.85;79361;1301;3011661;-67
2024/01/15 01:04:55;;;;;;;25.30;11.30;;;;;;;-3.28;85.00;98175.56;78143;1301;3028956;-67
2024/01/15 01:07:21;;;;;;;28.30;14.10;;;;;;;-2.73;84.22;98173.11;79457;1301;3019307;-68
2024/01/15 01:09:48;;;;;;;24.80;13.10;;;;;;;-2.13;81.95;98164.52;79305;1301;3012823;-66
2024/01/15 01:12:16;;;;;;;30.50;16.30;;;;;;;-2.03;80.55;98165.25;78201;1301;3025361;-65
2024/01/15 01:14:43;;;;;;;28.80;15.50;;;;;;;-2.40;80.48;98170.13;79425;1298;3014203;-66
2024/01/15 01:17:09;;;;;;;22.10;10.70;;;;;;;-2.71;80.93;98174.77;79323;1301;3011477;-67
2024/01/15 01:19:37;;;;;;;29.10;15.00;;;;;;;-3.00;81.56;98185.99;78092;1301;3026231;-69
2024/01/15 01:22:05;;;;;;;33.40;16.30;;;;;;;-3.32;82.40;98188.32;79415;1299;3013264;-66
2024/01/15 01:24:31;;;;;;;29.60;13.00;;;;;;;-3.51;83.05;98198.56;79383;1299;3011476;-69
2024/01/15 01:26:59;;;;;;;23.60;12.50;;;;;;;-3.68;83.18;98202.38;78183;1302;3052129;-66
2024/01/15 01:29:26;;;;;;;27.70;14.00;;;;;;;-3.97;83.85;98211.08;79418;1298;3018452;-69
2024/01/15 01:31:53;;;;;;;31.70;15.40;;;;;;;-4.29;84.56;98204.05;79320;1298;3013474;-70
2024/01/15 01:34:21;;;;;;;30.40;13.80;;;;;;;-4.37;84.83;98212.78;78131;1305;3027061;-67
2024/01/15 01:36:48;;;;;;;76.90;29.60;;;;;;;-4.49;84.99;98215.74;79300;1301;3013420;-67
2024/01/15 01:39:14;;;;;;;75.20;33.80;;;;;;;-4.51;85.07;98217.98;79331;1301;3011834;-67
2024/01/15 01:41:43;;;;;;;135.10;46.90;;;;;;;-4.67;85.03;98223.80;78192;1301;3026170;-67
2024/01/15 01:44:09;;;;;;;58.20;25.20;;;;;;;-4.81;85.45;98223.71;79380;1301;3013168;-67
2024/01/15 01:46:40;;;;;;;29.60;13.60;;;;;;;-5.03;85.85;98227.34;79303;1301;3011910;-67
2024/01/15 01:49:08;;;;;;;27.30;12.70;;;;;;;-4.43;85.53;98227.39;78209;1301;3049402;-65
2024/01/15 01:51:36;;;;;;;28.00;13.60;;;;;;;-3.90;82.27;98242.23;79344;1299;3014922;-66
2024/01/15 01:54:03;;;;;;;26.70;12.90;;;;;;;-3.74;80.72;98231.28;79263;1304;3012948;-66
2024/01/15 01:56:31;;;;;;;36.80;14.70;;;;;;;-4.05;80.59;98239.96;78136;1301;3052075;-65
2024/01/15 01:58:57;;;;;;;31.70;15.20;;;;;;;-4.16;80.36;98235.27;79362;1301;3013508;-64
2024/01/15 02:01:24;;;;;;;28.30;14.20;;;;;;;-4.52;80.59;98230.17;79390;1298;3011630;-66
2024/01/15 02:03:52;;;;;;;30.10;13.90;;;;;;;-4.67;80.81;98228.73;78088;1304;3028370;-66
2024/01/15 02:06:18;;;;;;;32.30;14.80;;;;;;;-4.73;80.68;98218.09;79304;1304;3018851;-65
2024/01/15 02:08:45;;;;;;;26.10;12.60;;;;;;;-4.92;81.22;98219.63;79338;1308;3013320;-66
2024/01/15 02:11:12;;;;;;;32.10;15.40;;;;;;;-5.20;82.18;98221.49;78096;1299;3027149;-65
2024/01/15 02:13:39;;;;;;;28.30;13.60;;;;;;;-5.24;82.28;98225.30;79343;1299;3019079;-65
2024/01/15 02:16:06;;;;;;;33.10;15.20;;;;;;;-5.47;82.97;98237.80;79143;1305;3011511;-66
2024/01/15 02:18:43;;;;;;;33.00;16.10;;;;;;;-5.63;83.93;98239.58;78067;1304;3028145;-67
2024/01/15 02:21:11;;;;;;;31.50;14.80;;;;;;;-5.62;84.30;98237.52;78099;1305;3054458;-66
2024/01/15 02:23:39;;;;;;;32.30;16.00;;;;;;;-5.53;84.06;98229.52;79337;1304;3013329;-67
2024/01/15 02:26:06;;;;;;;16.70;9.90;;;;;;;-5.57;84.02;98236.41;79353;1304;3012094;-64
2024/01/15 02:28:33;;;;;;;37.00;16.20;;;;;;;-5.31;83.26;98243.35;77976;1305;3068081;-67
2024/01/15 02:31:00;;;;;;;29.30;14.20;;;;;;;-4.89;82.78;98245.70;79320;1301;3013127;-66
2024/01/15 02:33:26;;;;;;;23.40;12.10;;;;;;;-4.43;80.88;98241.27;79277;1299;3011894;-67
2024/01/15 02:35:54;;;;;;;31.80;15.30;;;;;;;-4.08;79.72;98233.73;78250;1301;3026273;-65
2024/01/15 02:38:21;;;;;;;28.70;14.80;;;;;;;-4.25;78.79;98238.52;79624;1299;3013327;-67
2024/01/15 02:40:47;;;;;;;40.30;18.70;;;;;;;-4.58;79.30;98243.61;79252;1302;3011588;-63
2024/01/15 02:43:15;;;;;;;39.70;19.50;;;;;;;-4.87;80.23;98243.63;78113;1301;3028384;-66
2024/01/15 02:45:42;;;;;;;28.20;13.30;;;;;;;-5.09;81.33;98246.23;79466;1298;3013761;-65
2024/01/15 02:48:08;;;;;;;31.60;14.70;;;;;;;-5.06;81.31;98249.42;79326;1299;3011666;-65
2024/01/15 02:50:36;;;;;;;36.50;17.80;;;;;;;-5.35;82.44;98246.66;78129;1303;3026562;-65
2024/01/15 02:53:03;;;;;;;38.50;19.00;;;;;;;-5.57;83.95;98249.04;79218;1301;3013395;-64
2024/01/15 02:55:30;;;;;;;33.50;17.30;;;;;;;-5.55;84.34;98252.25;79485;1298;3011778;-64
2024/01/15 02:57:58;;;;;;;36.70;18.30;;;;;;;-5.60;84.32;98253.52;78119;1301;3028697;-64
2024/01/15 03:00:24;;;;;;;40.80;18.50;;;;;;;-5.70;85.47;98249.91;79434;1301;3018604;-67
2024/01/15 03:02:51;;;;;;;36.20;17.40;;;;;;;-5.69;85.29;98259.13;79314;1298;3011962;-64
2024/01/15 03:05:20;;;;;;;27.90;13.30;;;;;;;-5.73;85.56;98253.55;78166;1301;3027960;-67
2024/01/15 03:07:46;;;;;;;35.10;15.80;;;;;;;-5.07;84.76;98257.45;79410;1302;3013601;-66
2024/01/15 03:10:13;;;;;;;32.20;15.30;;;;;;;-4.15;81.89;98260.89;79336;1301;3011635;-64
2024/01/15 03:12:41;;;;;;;34.50;16.90;;;;;;;-4.27;80.24;98253.44;78177;1298;3068374;-65
2024/01/15 03:15:07;;;;;;;116.30;38.50;;;;;;;-4.22;80.23;98264.42;79364;1301;3012144;-68
2024/01/15 03:17:34;;;;;;;87.00;30.00;;;;;;;-4.66;80.05;98272.80;79365;1301;3011665;-65
2024/01/15 03:20:03;;;;;;;58.30;23.10;;;;;;;-4.85;81.22;98271.94;78161;1302;3025518;-66
2024/01/15 03:22:29;;;;;;;34.80;16.30;;;;;;;-4.93;81.40;98279.42;79330;1301;3013037;-66
2024/01/15 03:24:56;;;;;;;36.30;16.90;;;;;;;-5.08;82.15;98283.95;79337;1301;3011287;-66
2024/01/15 03:27:24;;;;;;;36.10;17.30;;;;;;;-5.15;82.14;98280.64;78129;1299;3068847;-66
2024/01/15 03:29:50;;;;;;;37.60;18.10;;;;;;;-5.39;83.64;98289.39;79406;1298;3015720;-64
2024/01/15 03:32:17;;;;;;;32.50;15.30;;;;;;;-5.41;83.75;98288.06;79145;1298;3012767;-66
2024/01/15 03:34:45;;;;;;;34.90;15.50;;;;;;;-5.51;83.92;98299.13;78129;1301;3028804;-65
2024/01/15 03:37:12;;;;;;;34.70;17.10;;;;;;;-5.47;84.52;98306.74;79392;1302;3012695;-65
2024/01/15 03:39:39;;;;;;;31.70;14.70;;;;;;;-5.44;83.73;98303.11;79346;1302;3011903;-66
2024/01/15 03:42:07;;;;;;;31.40;15.00;;;;;;;-4.97;83.45;98303.38;78147;1299;3068870;-66
2024/01/15 03:44:33;;;;;;;30.30;14.50;;;;;;;-4.79;81.90;98297.98;79359;1299;3011629;-67
2024/01/15 03:47:00;;;;;;;33.60;17.90;;;;;;;-4.86;81.35;98300.66;79340;1299;3013294;-66
2024/01/15 03:49:28;;;;;;;32.10;14.40;;;;;;;-4.94;81.78;98304.04;78023;1301;3028547;-65
2024/01/15 03:51:55;;;;;;;33.00;14.70;;;;;;;-4.89;80.90;98304.29;79409;1301;3013697;-66
2024/01/15 03:54:22;;;;;;;37.50;17.80;;;;;;;-5.05;81.08;98308.48;79349;1301;3011599;-69
2024/01/15 03:56:50;;;;;;;35.10;16.20;;;;;;;-5.50;82.05;98304.39;77945;1301;3069729;-63
2024/01/15 03:59:17;;;;;;;35.80;16.90;;;;;;;-5.63;82.73;98310.72;79386;1298;3018274;-66
2024/01/15 04:01:50;;;;;;;32.80;16.90;;;;;;;-5.64;83.16;98310.39;79367;1297;3011715;-67
2024/01/15 04:04:19;;;;;;;35.10;15.80;;;;;;;-5.87;83.64;98305.41;78179;1302;3052907;-67
2024/01/15 04:06:45;;;;;;;40.70;17.70;;;;;;;-6.04;84.22;98311.95;79431;1301;3012889;-64
2024/01/15 04:09:13;;;;;;;38.60;16.60;;;;;;;-6.12;85.09;98312.07;79396;1298;3013311;-65
2024/01/15 04:11:41;;;;;;;38.10;17.20;;;;;;;-6.25;84.78;98314.75;78128;1301;3071082;-63
2024/01/15 04:14:07;;;;;;;35.50;17.60;;;;;;;-6.33;85.62;98315.88;79348;1298;3013575;-66
2024/01/15 04:16:34;;;;;;;58.70;25.20;;;;;;;-6.31;85.82;98312.27;79320;1301;3013429;-65
2024/01/15 04:19:02;;;;;;;53.20;22.90;;;;;;;-6.40;85.86;98317.14;78212;1301;3026274;-63
2024/01/15 04:21:29;;;;;;;35.20;16.90;;;;;;;-6.15;85.15;98318.56;79330;1301;3021211;-66
2024/01/15 04:23:55;;;;;;;36.40;17.90;;;;;;;-5.57;84.55;98318.97;79449;1301;3011952;-66
2024/01/15 04:26:23;;;;;;;37.80;18.20;;;;;;;-5.13;81.65;98330.65;78130;1301;3027069;-67
2024/01/15 04:28:50;;;;;;;43.30;18.30;;;;;;;-5.11;80.94;98338.31;79375;1301;3011434;-66
2024/01/15 04:31:23;;;;;;;36.10;17.00;;;;;;;-5.15;81.28;98351.86;79372;1298;3013109;-67
2024/01/15 04:33:51;;;;;;;37.30;18.10;;;;;;;-5.42;81.23;98364.36;78075;1298;3050860;-66
2024/01/15 04:36:17;;;;;;;36.60;17.60;;;;;;;-5.70;81.88;98375.98;79366;1298;3013657;-67
2024/01/15 04:38:44;;;;;;;36.90;17.80;;;;;;;-6.04;83.09;98379.14;79156;1301;3302851;-64
2024/01/15 04:41:14;;;;;;;40.00;18.10;;;;;;;-6.07;83.52;98375.09;78116;1298;3026565;-68
2024/01/15 04:43:41;;;;;;;30.50;15.00;;;;;;;-6.29;83.77;98375.83;79373;1301;3013349;-64
2024/01/15 04:46:10;;;;;;;31.70;16.20;;;;;;;-6.51;84.43;98376.39;78843;1298;3011605;-67
2024/01/15 04:48:36;;;;;;;35.60;16.30;;;;;;;-6.54;84.55;98374.37;79385;1298;3013677;-67
2024/01/15 04:51:08;;;;;;;38.10;19.10;;;;;;;-6.74;85.81;98381.00;79344;1305;3011601;-66
2024/01/15 04:53:36;;;;;;;42.10;18.80;;;;;;;-6.66;85.18;98382.48;78182;1301;3053196;-69
2024/01/15 04:56:03;;;;;;;39.40;17.20;;;;;;;-6.70;85.04;98383.36;79370;1301;3013057;-64
2024/01/15 04:58:30;;;;;;;45.80;20.60;;;;;;;-6.76;85.42;98383.75;79351;1311;3012964;-67
2024/01/15 05:00:58;;;;;;;41.30;19.80;;;;;;;-6.90;86.12;98387.27;78025;1301;3026557;-65
2024/01/15 05:03:24;;;;;;;26.60;13.40;;;;;;;-7.02;86.24;98384.80;79257;1298;3013458;-64
2024/01/15 05:05:51;;;;;;;42.80;16.10;;;;;;;-6.49;85.33;98369.70;79335;1299;3013193;-65
2024/01/15 05:08:19;;;;;;;34.60;16.20;;;;;;;-6.11;83.21;98366.41;78201;1298;3028947;-65
2024/01/15 05:10:45;;;;;;;34.40;15.90;;;;;;;-5.92;82.70;98369.27;79418;1298;3018694;-70
2024/01/15 05:13:12;;;;;;;34.70;17.10;;;;;;;-5.86;82.28;98365.45;79378;1298;3013311;-65
2024/01/15 05:15:40;;;;;;;34.40;17.00;;;;;;;-6.09;81.76;98366.59;78130;1301;3025690;-67
2024/01/15 05:18:06;;;;;;;36.70;16.90;;;;;;;-6.32;83.22;98376.20;79360;1298;3013226;-66
2024/01/15 05:20:33;;;;;;;30.20;15.20;;;;;;;-6.49;83.93;98370.05;79334;1299;3011845;-65
2024/01/15 05:23:01;;;;;;;38.20;18.80;;;;;;;-6.45;84.40;98368.49;78166;1298;3026262;-66
2024/01/15 05:25:27;;;;;;;39.60;18.10;;;;;;;-6.49;84.12;98373.13;79381;1299;3013098;-66
2024/01/15 05:27:54;;;;;;;41.90;19.40;;;;;;;-6.59;84.20;98374.41;79304;1297;3013190;-70
2024/01/15 05:30:21;;;;;;;31.50;15.40;;;;;;;-6.77;84.87;98382.23;78006;1298;3026111;-70
2024/01/15 05:32:48;;;;;;;42.80;17.90;;;;;;;-6.77;86.04;98391.27;79329;1299;3013000;-68
2024/01/15 05:35:15;;;;;;;32.20;14.60;;;;;;;-6.58;84.70;98389.56;79375;1298;3011796;-68
2024/01/15 05:37:44;;;;;;;44.10;19.60;;;;;;;-6.66;85.05;98390.82;78119;1301;3026180;-66
2024/01/15 05:40:12;;;;;;;28.60;14.10;;;;;;;-6.60;84.87;98382.59;79302;1301;3013006;-68
2024/01/15 05:42:41;;;;;;;28.50;12.70;;;;;;;-6.23;84.25;98385.65;78819;1297;3012865;-69
2024/01/15 05:45:08;;;;;;;42.70;19.00;;;;;;;-5.49;82.45;98377.92;79482;1298;3013615;-67
2024/01/15 05:47:35;;;;;;;26.20;12.80;;;;;;;-5.44;81.20;98374.11;79350;1297;3011786;-66
2024/01/15 05:50:03;;;;;;;38.40;19.10;;;;;;;-5.03;80.09;98368.41;78180;1301;3026869;-65
2024/01/15 05:52:29;;;;;;;35.40;17.10;;;;;;;-5.34;80.08;98373.30;79430;1301;3012911;-67
2024/01/15 05:54:56;;;;;;;40.20;20.00;;;;;;;-5.60;80.07;98377.04;79365;1300;3011656;-67
2024/01/15 05:57:24;;;;;;;34.60;17.50;;;;;;;-5.98;81.24;98382.96;78219;1301;3026317;-67
2024/01/15 05:59:51;;;;;;;39.20;19.10;;;;;;;-6.17;82.69;98380.14;79360;1302;3013596;-69
2024/01/15 06:02:17;;;;;;;40.60;18.90;;;;;;;-6.29;83.87;98383.33;79306;1303;3011946;-69
2024/01/15 06:04:46;;;;;;;46.30;22.20;;;;;;;-6.38;84.29;98397.06;78045;1298;3026072;-68
2024/01/15 06:07:12;;;;;;;45.40;20.80;;;;;;;-6.45;83.94;98396.77;79307;1304;3012847;-67
2024/01/15 06:09:39;;;;;;;52.50;22.90;;;;;;;-6.47;84.28;98409.39;79329;1298;3011720;-69
2024/01/15 06:12:07;;;;;;;41.70;19.90;;;;;;;-6.57;84.52;98423.11;78054;1304;3028172;-68
2024/01/15 06:14:34;;;;;;;42.40;19.00;;;;;;;-6.61;84.98;98428.27;79295;1298;3013837;-68
2024/01/15 06:17:00;;;;;;;47.80;22.40;;;;;;;-6.57;85.16;98418.34;79316;1298;3013184;-67
2024/01/15 06:19:28;;;;;;;30.20;14.00;;;;;;;-6.49;84.79;98420.33;78053;1298;3026303;-67
2024/01/15 06:21:54;;;;;;;31.50;14.20;;;;;;;-5.85;84.05;98415.22;79362;1301;3011573;-67
2024/01/15 06:24:21;;;;;;;34.20;15.80;;;;;;;-5.37;81.29;98414.47;79333;1298;3011482;-68
2024/01/15 06:26:49;;;;;;;29.30;15.60;;;;;;;-5.35;80.51;98415.80;78138;1304;3026383;-69
2024/01/15 06:29:15;;;;;;;42.40;19.40;;;;;;;-5.42;80.60;98427.00;79390;1299;3013829;-66
2024/01/15 06:31:42;;;;;;;44.40;18.70;;;;;;;-5.54;80.64;98424.94;79317;1299;3011616;-70
2024/01/15 06:34:09;;;;;;;31.70;16.90;;;;;;;-5.46;80.73;98432.50;78172;1301;3026177;-66
2024/01/15 06:36:36;;;;;;;38.10;15.70;;;;;;;-5.46;80.55;98423.11;79344;1301;3021030;-65
2024/01/15 06:39:04;;;;;;;33.80;15.70;;;;;;;-5.55;80.56;98434.84;79459;1301;3011675;-67
2024/01/15 06:41:31;;;;;;;33.40;16.00;;;;;;;-5.82;81.21;98444.02;78293;1300;3067590;-68
2024/01/15 06:43:58;;;;;;;38.30;17.00;;;;;;;-5.71;81.37;98452.93;79493;1301;3012791;-68
2024/01/15 06:46:25;;;;;;;33.60;15.60;;;;;;;-5.90;81.73;98451.95;79443;1297;3013470;-65
2024/01/15 06:48:52;;;;;;;39.30;18.80;;;;;;;-5.84;81.97;98457.70;78112;1301;3026565;-67
2024/01/15 06:51:19;;;;;;;34.10;17.40;;;;;;;-5.87;82.36;98450.75;79374;1302;3018979;-66
2024/01/15 06:53:45;;;;;;;39.50;17.80;;;;;;;-5.83;81.90;98454.77;79425;1301;3011616;-64
2024/01/15 06:56:13;;;;;;;37.10;18.10;;;;;;;-5.64;81.73;98452.52;78148;1301;3026319;-64
2024/01/15 06:58:39;;;;;;;35.00;16.20;;;;;;;-5.40;80.94;98461.11;79469;1301;3013406;-64
2024/01/15 07:01:07;;;;;;;34.40;18.00;;;;;;;-5.45;80.40;98461.00;79423;1298;3011892;-66
2024/01/15 07:03:35;;;;;;;31.90;15.90;;;;;;;-5.37;80.37;98466.03;78118;1298;3053844;-67
2024/01/15 07:06:02;;;;;;;36.90;16.80;;;;;;;-5.40;80.08;98458.54;79413;1301;3013562;-66
2024/01/15 07:08:28;;;;;;;40.20;19.90;;;;;;;-5.21;79.35;98455.58;79349;1301;3012987;-64
2024/01/15 07:10:56;;;;;;;37.60;18.70;;;;;;;-5.21;79.86;98451.30;78161;1301;3026784;-66
2024/01/15 07:13:23;;;;;;;37.80;17.60;;;;;;;-5.11;79.25;98451.52;79348;1298;3013124;-66
2024/01/15 07:15:50;;;;;;;33.90;16.00;;;;;;;-5.08;78.81;98455.76;79322;1298;3011778;-65
2024/01/15 07:18:18;;;;;;;36.00;17.60;;;;;;;-5.08;79.14;98448.41;78088;1301;3026182;-66
2024/01/15 07:20:44;;;;;;;39.50;18.40;;;;;;;-4.84;78.73;98445.33;79436;1298;3013732;-65
2024/01/15 07:23:11;;;;;;;44.10;20.30;;;;;;;-4.75;77.71;98453.25;79356;1301;3011645;-66
2024/01/15 07:25:38;;;;;;;44.40;20.10;;;;;;;-4.86;78.16;98449.63;78299;1297;3026460;-66
2024/01/15 07:28:05;;;;;;;38.50;17.40;;;;;;;-4.72;77.91;98451.13;79453;1299;3013029;-66
2024/01/15 07:30:32;;;;;;;40.50;19.70;;;;;;;-4.51;77.17;98447.57;79319;1304;3011489;-65
2024/01/15 07:33:00;;;;;;;33.20;16.40;;;;;;;-4.50;76.83;98449.26;78485;1301;3052381;-65
2024/01/15 07:35:27;;;;;;;35.20;16.50;;;;;;;-4.41;76.71;98452.02;79596;1301;3012799;-65
2024/01/15 07:37:54;;;;;;;42.60;18.40;;;;;;;-4.24;76.48;98446.61;79450;1298;3012026;-65
2024/01/15 07:40:23;;;;;;;32.00;15.10;;;;;;;-4.19;76.01;98448.58;78268;1298;3025164;-65
2024/01/15 07:42:51;;;;;;;31.30;14.50;;;;;;;-3.94;75.50;98453.09;79327;1299;3013934;-65
2024/01/15 07:45:17;;;;;;;31.60;14.90;;;;;;;-4.02;75.37;98467.61;79284;1298;3013416;-64
2024/01/15 07:47:45;;;;;;;32.40;14.30;;;;;;;-4.12;75.40;98473.09;78266;1298;3052339;-64
2024/01/15 07:50:12;;;;;;;30.30;15.50;;;;;;;-4.11;75.45;98476.98;79429;1301;3013470;-65
2024/01/15 07:52:41;;;;;;;33.50;15.90;;;;;;;-3.98;75.54;98470.44;79499;1298;3011801;-65
2024/01/15 07:55:09;;;;;;;31.20;15.20;;;;;;;-3.86;75.25;98471.44;78209;1301;3068589;-65
2024/01/15 07:57:36;;;;;;;29.30;14.30;;;;;;;-3.59;74.42;98473.33;79565;1297;3013978;-65
2024/01/15 08:00:05;;;;;;;35.20;16.20;;;;;;;-3.56;73.99;98474.47;79492;1298;3011901;-65
2024/01/15 08:02:34;;;;;;;35.50;16.00;;;;;;;-3.60;73.64;98478.99;78137;1301;3052111;-64
2024/01/15 08:05:00;;;;;;;31.30;15.10;;;;;;;-3.61;73.96;98478.15;79467;1301;3012979;-65
2024/01/15 08:07:27;;;;;;;35.90;17.50;;;;;;;-3.64;74.08;98473.94;79470;1301;3011759;-65
2024/01/15 08:09:55;;;;;;;32.80;16.10;;;;;;;-3.53;73.74;98475.62;78287;1297;3028278;-65
2024/01/15 08:12:22;;;;;;;23.70;12.90;;;;;;;-3.53;73.54;98482.11;80085;1298;3012988;-66
2024/01/15 08:14:48;;;;;;;23.20;12.60;;;;;;;-3.46;73.34;98479.06;79504;1298;3013212;-64
2024/01/15 08:17:16;;;;;;;27.50;13.70;;;;;;;-3.31;72.81;98482.54;78292;1298;3025884;-65
2024/01/15 08:19:43;;;;;;;30.80;15.30;;;;;;;-3.23;72.71;98481.20;79531;1301;3013596;-65
2024/01/15 08:22:11;;;;;;;33.10;17.00;;;;;;;-3.01;72.20;98481.91;81726;1297;3011645;-67
2024/01/15 08:24:38;;;;;;;40.40;18.40;;;;;;;-2.89;71.95;98471.91;80539;1297;3067560;-65
2024/01/15 08:27:05;;;;;;;38.90;17.40;;;;;;;-2.60;71.46;98471.08;81831;1298;3012530;-65
2024/01/15 08:29:33;;;;;;;35.40;16.80;;;;;;;-2.66;71.05;98473.78;81817;1298;3011396;-66
2024/01/15 08:32:01;;;;;;;27.30;14.20;;;;;;;-2.78;70.92;98473.04;80533;1298;3051870;-68
2024/01/15 08:34:28;;;;;;;26.90;14.40;;;;;;;-2.66;70.85;98472.75;81823;1297;3012448;-67
2024/01/15 08:36:54;;;;;;;34.90;16.10;;;;;;;-2.84;70.98;98465.97;79680;1301;3011553;-64
2024/01/15 08:39:22;;;;;;;24.40;12.60;;;;;;;-2.57;70.87;98461.73;78131;1298;3026584;-65
2024/01/15 08:41:49;;;;;;;27.20;14.00;;;;;;;-2.39;69.99;98464.05;79427;1301;3013611;-64
2024/01/15 08:44:16;;;;;;;26.60;14.10;;;;;;;-2.41;70.16;98461.02;79329;1298;3011500;-66
2024/01/15 08:46:44;;;;;;;24.90;12.60;;;;;;;-2.24;69.99;98456.16;78155;1301;3052838;-65
2024/01/15 08:49:10;;;;;;;22.80;11.60;;;;;;;-2.13;69.40;98458.10;79516;1301;3013841;-66
2024/01/15 08:51:37;;;;;;;23.40;10.90;;;;;;;-1.91;68.78;98466.64;79469;1301;3013565;-65
2024/01/15 08:54:08;;;;;;;29.00;14.20;;;;;;;-2.08;69.61;98466.39;78195;1301;3068601;-63
2024/01/15 08:56:34;;;;;;;29.10;14.70;;;;;;;-2.10;70.38;98464.20;79501;1298;3012332;-68
2024/01/15 08:59:01;;;;;;;28.90;13.70;;;;;;;-2.07;70.93;98463.95;79464;1303;3012771;-64
2024/01/15 09:01:29;;;;;;;27.00;14.00;;;;;;;-1.99;71.40;98460.84;78188;1298;3053454;-65
2024/01/15 09:03:56;;;;;;;24.20;13.70;;;;;;;-2.14;72.19;98460.02;79655;1302;3015832;-69
2024/01/15 09:06:22;;;;;;;27.30;13.80;;;;;;;-2.10;72.37;98454.59;79650;1301;3011803;-65
2024/01/15 09:08:50;;;;;;;30.10;13.40;;;;;;;-1.97;72.55;98447.77;78331;1301;3069417;-69
2024/01/15 09:11:17;;;;;;;24.10;12.90;;;;;;;-1.95;72.66;98449.57;79419;1298;3012999;-65
2024/01/15 09:13:44;;;;;;;28.10;14.00;;;;;;;-1.72;72.32;98440.23;79366;1298;3011951;-66
2024/01/15 09:16:11;;;;;;;28.60;14.20;;;;;;;-1.64;72.09;98452.52;78140;1298;3025843;-65
2024/01/15 09:18:38;;;;;;;24.50;12.90;;;;;;;-1.56;71.97;98460.22;79272;1302;3018705;-66
2024/01/15 09:21:05;;;;;;;28.90;13.80;;;;;;;-1.45;71.74;98448.26;79612;1301;3011294;-66
2024/01/15 09:23:32;;;;;;;28.80;14.10;;;;;;;-1.44;71.92;98440.48;78183;1298;3026106;-65
2024/01/15 09:25:59;;;;;;;27.10;12.90;;;;;;;-1.07;71.78;98438.36;79400;1299;3015487;-67
2024/01/15 09:28:25;;;;;;;23.90;13.30;;;;;;;-0.99;70.82;98444.00;79542;1301;3011508;-66
2024/01/15 09:30:53;;;;;;;22.70;11.30;;;;;;;-1.01;70.53;98449.73;78343;1298;3026487;-66
2024/01/15 09:33:20;;;;;;;23.20;12.10;;;;;;;-1.08;70.80;98444.42;79650;1303;3013269;-66
2024/01/15 09:35:46;;;;;;;26.50;13.40;;;;;;;-0.85;70.56;98442.19;79553;1301;3011667;-66
2024/01/15 09:38:15;;;;;;;26.50;13.30;;;;;;;-0.70;70.66;98430.41;78393;1301;3026452;-65
2024/01/15 09:40:43;;;;;;;29.40;13.30;;;;;;;-0.66;70.91;98441.80;79364;1298;3013705;-64
2024/01/15 09:43:09;;;;;;;25.20;13.20;;;;;;;-0.78;71.49;98437.67;79510;1298;3011657;-66
2024/01/15 09:45:37;;;;;;;31.40;15.50;;;;;;;-0.77;72.21;98436.45;78065;1298;3052606;-64
2024/01/15 09:48:04;;;;;;;33.20;16.10;;;;;;;-0.70;71.83;98434.52;79400;1303;3013468;-64
2024/01/15 09:50:31;;;;;;;36.90;16.80;;;;;;;-0.81;72.32;98431.05;79683;1301;3013303;-65
2024/01/15 09:52:59;;;;;;;39.60;18.40;;;;;;;-0.66;72.32;98428.38;78137;1297;3071193;-67
2024/01/15 09:55:26;;;;;;;40.20;18.90;;;;;;;-0.57;72.74;98422.90;79571;1301;3013130;-67
2024/01/15 09:57:52;;;;;;;46.20;19.60;;;;;;;-0.54;72.88;98420.41;79489;1298;3012048;-66
2024/01/15 10:00:20;;;;;;;37.60;17.00;;;;;;;-0.42;73.44;98421.24;78160;1298;3025910;-69
2024/01/15 10:02:47;;;;;;;37.10;18.40;;;;;;;-0.42;72.81;98414.01;79459;1301;3013674;-65
2024/01/15 10:05:13;;;;;;;80.90;29.30;;;;;;;-0.45;73.47;98411.70;79374;1300;3011753;-65
2024/01/15 10:07:41;;;;;;;63.00;25.70;;;;;;;-0.57;74.01;98408.65;78398;1298;3026148;-65
2024/01/15 10:10:08;;;;;;;55.30;22.20;;;;;;;-0.43;74.31;98404.08;79365;1298;3013829;-65
2024/01/15 10:12:36;;;;;;;65.80;25.60;;;;;;;-0.35;74.01;98403.63;79635;1298;3011328;-66
2024/01/15 10:15:04;;;;;;;86.80;32.00;;;;;;;-0.38;74.21;98405.96;78387;1301;3051589;-66
2024/01/15 10:17:31;;;;;;;71.50;24.40;;;;;;;-0.49;74.96;98414.23;79631;1301;3013461;-65
2024/01/15 10:19:57;;;;;;;52.90;20.80;;;;;;;-0.92;76.44;98430.69;79546;1301;3011648;-66
2024/01/15 10:22:25;;;;;;;43.70;18.30;;;;;;;-0.76;76.92;98420.42;78178;1298;3068145;-65
2024/01/15 10:24:52;;;;;;;37.30;16.50;;;;;;;-0.78;76.83;98419.27;79322;1298;3012747;-64
2024/01/15 10:27:19;;;;;;;48.00;19.30;;;;;;;-0.91;77.40;98424.48;79348;1298;3013317;-65
2024/01/15 10:29:46;;;;;;;47.70;19.70;;;;;;;-0.77;77.39;98422.52;78391;1298;3026802;-65
2024/01/15 10:32:13;;;;;;;48.20;20.00;;;;;;;-0.60;76.79;98424.40;79392;1301;3019088;-68
2024/01/15 10:34:40;;;;;;;38.90;18.30;;;;;;;-0.58;76.40;98419.16;79497;1301;3011488;-69
2024/01/15 10:37:08;;;;;;;35.30;16.40;;;;;;;-0.48;75.13;98409.73;78104;1301;3026718;-66
2024/01/15 10:39:34;;;;;;;34.50;16.60;;;;;;;-0.58;73.99;98406.78;79384;1297;3013012;-66
2024/01/15 10:42:01;;;;;;;38.60;16.60;;;;;;;-0.54;73.71;98406.83;79457;1297;3013613;-67
2024/01/15 10:44:29;;;;;;;45.80;19.10;;;;;;;-0.52;72.93;98401.95;78189;1298;3027296;-66
2024/01/15 10:46:56;;;;;;;52.20;20.50;;;;;;;-0.37;72.32;98397.33;79558;1301;3014695;-65
2024/01/15 10:49:25;;;;;;;40.50;18.90;;;;;;;-0.43;72.61;98396.83;79299;1301;3011556;-65
2024/01/15 10:51:53;;;;;;;44.80;18.70;;;;;;;-0.37;72.64;98395.60;78243;1301;3069160;-66
2024/01/15 10:54:20;;;;;;;40.50;16.40;;;;;;;-0.46;72.75;98397.63;79317;1298;3013483;-65
2024/01/15 10:56:48;;;;;;;30.10;15.80;;;;;;;-0.22;72.28;98395.63;79400;1298;3012548;-65
2024/01/15 10:59:16;;;;;;;35.40;16.10;;;;;;;-0.13;71.32;98398.10;78122;1298;3025822;-67
2024/01/15 11:01:43;;;;;;;32.30;14.40;;;;;;;-0.35;70.99;98404.00;79646;1301;3018738;-65